createdAt,value
2023-01-28T00:00:36.169Z,100533.41
2023-01-28T00:04:59.266Z,100537.69
2023-01-28T00:09:02.373Z,100554.13
2023-01-28T00:13:07.109Z,100540.31
2023-01-28T00:17:10.298Z,100553.25
2023-01-28T00:21:15.532Z,100550.69
2023-01-28T00:25:19.871Z,100560.22
2023-01-28T00:29:24.084Z,100553.28
2023-01-28T00:33:29.631Z,100546.38
2023-01-28T00:37:32.933Z,100543.78
2023-01-28T00:41:36.447Z,100549.84
2023-01-28T00:45:40.966Z,100561.09
2023-01-28T00:49:43.589Z,100551.56
2023-01-28T00:53:46.754Z,100545.47
2023-01-28T00:57:49.857Z,100549.84
2023-01-28T01:01:54.724Z,100549.84
2023-01-28T01:05:59.359Z,100549.84
2023-01-28T01:10:02.964Z,100550.75
2023-01-28T01:14:07.375Z,100549.91
2023-01-28T01:18:13.428Z,100551.63
2023-01-28T01:22:19.394Z,100544.72
2023-01-28T01:26:22.275Z,100545.63
2023-01-28T01:30:25.950Z,100548.22
2023-01-28T01:34:31.276Z,100549.06
2023-01-28T01:38:34.431Z,100548.22
2023-01-28T01:42:37.388Z,100545.66
2023-01-28T01:46:45.278Z,100549.09
2023-01-28T01:50:55.258Z,100540.44
2023-01-28T01:55:01.126Z,100549.09
2023-01-28T01:59:05.493Z,100549.09
2023-01-28T02:03:09.342Z,100556.00
2023-01-28T02:07:19.143Z,100559.47
2023-01-28T02:11:23.075Z,100562.06
2023-01-28T02:15:30.006Z,100559.47
2023-01-28T02:19:39.923Z,100557.72
2023-01-28T02:24:03.712Z,100557.69
2023-01-28T02:28:17.876Z,100553.41
2023-01-28T02:32:26.574Z,100549.94
2023-01-28T02:36:37.827Z,100549.09
2023-01-28T02:40:59.485Z,100544.75
2023-01-28T02:45:04.241Z,100549.94
2023-01-28T02:49:12.020Z,100560.34
2023-01-28T02:53:44.458Z,100555.09
2023-01-28T02:57:56.801Z,100562.00
2023-01-28T03:02:10.083Z,100559.41
2023-01-28T03:06:17.698Z,100555.94
2023-01-28T03:10:22.554Z,100565.47
2023-01-28T03:14:44.487Z,100551.63
2023-01-28T03:19:11.120Z,100558.56
2023-01-28T03:23:40.399Z,100561.16
2023-01-28T03:28:07.116Z,100562.06
2023-01-28T03:32:28.409Z,100568.06
2023-01-28T03:36:50.210Z,100562.94
2023-01-28T03:40:54.513Z,100562.06
2023-01-28T03:44:58.058Z,100563.75
2023-01-28T03:49:01.232Z,100562.00
2023-01-28T03:53:16.919Z,100565.47
2023-01-28T03:57:22.914Z,100566.34
2023-01-28T04:01:26.091Z,100566.34
2023-01-28T04:05:31.281Z,100560.28
2023-01-28T04:09:36.041Z,100565.47
2023-01-28T04:13:41.622Z,100564.59
2023-01-28T04:17:48.257Z,100557.69
2023-01-28T04:21:54.328Z,100555.94
2023-01-28T04:25:59.010Z,100554.22
2023-01-28T04:30:02.253Z,100553.41
2023-01-28T04:34:05.406Z,100560.34
2023-01-28T04:38:08.666Z,100554.28
2023-01-28T04:42:12.937Z,100561.16
2023-01-28T04:46:15.939Z,100571.53
2023-01-28T04:50:19.461Z,100571.53
2023-01-28T04:54:22.310Z,100566.34
2023-01-28T04:58:29.991Z,100569.78
2023-01-28T05:02:33.442Z,100574.13
2023-01-28T05:06:36.638Z,100573.25
2023-01-28T05:10:40.545Z,100567.19
2023-01-28T05:14:45.009Z,100574.97
2023-01-28T05:18:48.474Z,100575.84
2023-01-28T05:22:51.600Z,100579.31
2023-01-28T05:26:54.792Z,100581.03
2023-01-28T05:30:59.131Z,100585.38
2023-01-28T05:35:02.091Z,100586.22
2023-01-28T05:39:05.324Z,100587.91
2023-01-28T05:43:08.529Z,100582.72
2023-01-28T05:47:12.993Z,100586.19
2023-01-28T05:51:15.727Z,100583.59
2023-01-28T05:55:20.780Z,100587.03
2023-01-28T05:59:24.176Z,100574.94
2023-01-28T06:03:28.733Z,100587.91
2023-01-28T06:07:31.673Z,100593.09
2023-01-28T06:11:34.583Z,100590.50
2023-01-28T06:15:37.787Z,100596.53
2023-01-28T06:19:42.561Z,100593.09
2023-01-28T06:23:45.474Z,100596.56
2023-01-28T06:27:48.824Z,100600.03
2023-01-28T06:31:52.474Z,100606.94
2023-01-28T06:35:58.317Z,100606.94
2023-01-28T06:40:07.300Z,100621.59
2023-01-28T06:44:10.651Z,100617.28
2023-01-28T06:48:13.984Z,100614.69
2023-01-28T06:52:18.735Z,100632.84
2023-01-28T06:56:21.783Z,100626.78
2023-01-28T07:00:25.137Z,100624.16
2023-01-28T07:04:28.307Z,100637.06
2023-01-28T07:08:33.279Z,100637.94
2023-01-28T07:12:36.184Z,100642.25
2023-01-28T07:16:39.299Z,100650.06
2023-01-28T07:20:42.616Z,100646.56
2023-01-28T07:24:47.272Z,100653.50
2023-01-28T07:28:50.384Z,100645.69
2023-01-28T07:32:57.361Z,100653.41
2023-01-28T07:37:03.590Z,100650.75
2023-01-28T07:41:08.173Z,100652.47
2023-01-28T07:45:11.958Z,100658.56
2023-01-28T07:49:15.379Z,100649.91
2023-01-28T07:53:18.670Z,100660.28
2023-01-28T07:57:24.611Z,100652.41
2023-01-28T08:01:27.933Z,100652.38
2023-01-28T08:05:39.382Z,100656.66
2023-01-28T08:09:42.447Z,100660.94
2023-01-28T08:13:46.781Z,100659.09
2023-01-28T08:17:49.701Z,100655.63
2023-01-28T08:21:52.642Z,100658.16
2023-01-28T08:25:56.151Z,100658.06
2023-01-28T08:30:03.485Z,100653.72
2023-01-28T08:34:06.498Z,100653.69
2023-01-28T08:38:10.730Z,100656.31
2023-01-28T08:42:13.788Z,100657.25
2023-01-28T08:46:18.626Z,100652.97
2023-01-28T08:50:24.168Z,100646.09
2023-01-28T08:54:27.181Z,100658.22
2023-01-28T08:58:30.209Z,100663.38
2023-01-28T09:02:34.712Z,100666.78
2023-01-28T09:06:37.849Z,100668.50
2023-01-28T09:10:46.014Z,100671.91
2023-01-28T09:14:49.005Z,100670.19
2023-01-28T09:18:54.264Z,100678.91
2023-01-28T09:23:00.352Z,100684.94
2023-01-28T09:27:03.403Z,100684.09
2023-01-28T09:31:08.118Z,100680.56
2023-01-28T09:35:13.269Z,100690.91
2023-01-28T09:39:16.551Z,100690.91
2023-01-28T09:43:51.624Z,100693.56
2023-01-28T09:47:57.206Z,100687.44
2023-01-28T09:52:01.773Z,100689.97
2023-01-28T09:56:08.728Z,100686.41
2023-01-28T10:00:16.123Z,100676.00
2023-01-28T10:04:28.923Z,100680.28
2023-01-28T10:08:52.653Z,100681.91
2023-01-28T10:13:22.188Z,100675.72
2023-01-28T10:17:30.822Z,100673.00
2023-01-28T10:21:38.799Z,100665.13
2023-01-28T10:25:48.471Z,100673.75
2023-01-28T10:29:56.084Z,100661.72
2023-01-28T10:33:59.628Z,100658.22
2023-01-28T10:38:08.211Z,100655.66
2023-01-28T10:42:24.450Z,100659.13
2023-01-28T10:46:31.676Z,100658.22
2023-01-28T10:50:35.653Z,100655.72
2023-01-28T10:54:38.991Z,100659.19
2023-01-28T10:59:03.815Z,100653.13
2023-01-28T11:03:07.099Z,100661.03
2023-01-28T11:07:22.522Z,100654.25
2023-01-28T11:11:28.052Z,100650.03
2023-01-28T11:15:33.662Z,100650.16
2023-01-28T11:19:38.013Z,100645.00
2023-01-28T11:23:51.097Z,100649.34
2023-01-28T11:27:55.842Z,100646.75
2023-01-28T11:32:03.646Z,100644.97
2023-01-28T11:36:09.788Z,100643.97
2023-01-28T11:40:21.470Z,100627.34
2023-01-28T11:44:27.080Z,100628.25
2023-01-28T11:48:42.531Z,100621.28
2023-01-28T11:53:17.355Z,100628.13
2023-01-28T11:57:25.541Z,100622.00
2023-01-28T12:01:43.903Z,100629.72
2023-01-28T12:05:53.746Z,100627.13
2023-01-28T12:10:02.562Z,100617.41
2023-01-28T12:14:15.058Z,100616.72
2023-01-28T12:18:33.628Z,100628.00
2023-01-28T12:23:04.175Z,100617.66
2023-01-28T12:27:22.401Z,100623.72
2023-01-28T12:31:53.450Z,100627.22
2023-01-28T12:36:07.405Z,100624.66
2023-01-28T12:40:45.837Z,100617.72
2023-01-28T12:44:54.017Z,100615.13
2023-01-28T12:49:02.410Z,100605.59
2023-01-28T12:53:21.819Z,100611.59
2023-01-28T12:57:29.393Z,100622.84
2023-01-28T13:01:44.363Z,100617.66
2023-01-28T13:05:52.451Z,100619.41
2023-01-28T13:10:03.463Z,100629.25
2023-01-28T13:14:08.392Z,100628.56
2023-01-28T13:18:34.134Z,100620.81
2023-01-28T13:22:38.853Z,100621.69
2023-01-28T13:26:45.932Z,100628.66
2023-01-28T13:30:50.830Z,100634.69
2023-01-28T13:35:00.178Z,100632.19
2023-01-28T13:39:06.623Z,100638.25
2023-01-28T13:43:28.828Z,100632.25
2023-01-28T13:47:37.278Z,100636.63
2023-01-28T13:51:42.498Z,100642.75
2023-01-28T13:55:49.006Z,100645.41
2023-01-28T14:00:04.312Z,100636.69
2023-01-28T14:04:43.614Z,100639.41
2023-01-28T14:09:06.150Z,100629.06
2023-01-28T14:13:26.677Z,100623.91
2023-01-28T14:17:40.557Z,100630.84
2023-01-28T14:21:47.606Z,100634.38
2023-01-28T14:26:10.515Z,100636.09
2023-01-28T14:30:21.471Z,100643.06
2023-01-28T14:34:29.509Z,100636.16
2023-01-28T14:38:40.309Z,100631.00
2023-01-28T14:42:49.453Z,100631.88
2023-01-28T14:47:05.145Z,100631.06
2023-01-28T14:51:35.150Z,100637.19
2023-01-28T14:55:50.015Z,100633.75
2023-01-28T14:59:55.668Z,100635.50
2023-01-28T15:03:59.152Z,100645.03
2023-01-28T15:08:02.402Z,100642.41
2023-01-28T15:12:09.601Z,100642.41
2023-01-28T15:16:19.305Z,100644.16
2023-01-28T15:20:28.799Z,100654.53
2023-01-28T15:24:32.972Z,100645.91
2023-01-28T15:28:40.386Z,100661.53
2023-01-28T15:32:43.996Z,100658.97
2023-01-28T15:36:47.993Z,100664.19
2023-01-28T15:40:56.583Z,100662.47
2023-01-28T15:45:04.642Z,100665.97
2023-01-28T15:49:07.593Z,100661.69
2023-01-28T15:53:11.802Z,100666.00
2023-01-28T15:57:20.935Z,100677.28
2023-01-28T16:01:27.362Z,100674.69
2023-01-28T16:05:36.074Z,100666.88
2023-01-28T16:09:42.431Z,100666.84
2023-01-28T16:13:46.099Z,100675.56
2023-01-28T16:17:51.877Z,100669.56
2023-01-28T16:21:54.800Z,100678.25
2023-01-28T16:26:02.165Z,100673.94
2023-01-28T16:30:08.861Z,100678.28
2023-01-28T16:34:13.783Z,100679.13
2023-01-28T16:38:19.525Z,100667.88
2023-01-28T16:42:22.822Z,100677.44
2023-01-28T16:46:28.951Z,100673.09
2023-01-28T16:50:34.590Z,100679.16
2023-01-28T16:54:45.939Z,100678.28
2023-01-28T16:58:49.069Z,100682.63
2023-01-28T17:02:52.693Z,100689.53
2023-01-28T17:07:01.148Z,100684.31
2023-01-28T17:11:04.276Z,100679.16
2023-01-28T17:15:08.905Z,100673.09
2023-01-28T17:19:11.928Z,100688.66
2023-01-28T17:23:17.779Z,100682.63
2023-01-28T17:27:22.239Z,100679.16
2023-01-28T17:31:26.715Z,100680.03
2023-01-28T17:35:31.266Z,100680.03
2023-01-28T17:39:35.808Z,100680.88
2023-01-28T17:43:38.711Z,100686.06
2023-01-28T17:47:41.941Z,100696.50
2023-01-28T17:51:46.930Z,100691.34
2023-01-28T17:55:51.338Z,100694.88
2023-01-28T17:59:54.949Z,100706.13
2023-01-28T18:03:59.309Z,100705.28
2023-01-28T18:08:02.678Z,100707.88
2023-01-28T18:12:15.002Z,100708.75
2023-01-28T18:16:21.174Z,100699.28
2023-01-28T18:20:24.424Z,100711.34
2023-01-28T18:24:30.445Z,100712.22
2023-01-28T18:28:36.853Z,100711.28
2023-01-28T18:32:40.953Z,100726.00
2023-01-28T18:36:49.709Z,100731.22
2023-01-28T18:40:56.615Z,100742.47
2023-01-28T18:45:01.336Z,100728.69
2023-01-28T18:49:05.185Z,100722.63
2023-01-28T18:53:08.231Z,100729.56
2023-01-28T18:57:11.587Z,100736.50
2023-01-28T19:01:16.441Z,100727.84
2023-01-28T19:05:19.810Z,100726.97
2023-01-28T19:09:24.742Z,100719.19
2023-01-28T19:13:28.984Z,100722.66
2023-01-28T19:17:36.087Z,100726.13
2023-01-28T19:21:39.830Z,100715.78
2023-01-28T19:25:43.423Z,100721.84
2023-01-28T19:29:47.353Z,100719.25
2023-01-28T19:33:55.789Z,100731.34
2023-01-28T19:37:58.966Z,100734.78
2023-01-28T19:42:03.685Z,100736.53
2023-01-28T19:46:09.787Z,100733.97
2023-01-28T19:50:15.811Z,100742.59
2023-01-28T19:54:19.251Z,100734.00
2023-01-28T19:58:22.519Z,100738.31
2023-01-28T20:02:29.983Z,100743.50
2023-01-28T20:06:37.533Z,100740.91
2023-01-28T20:10:41.505Z,100735.75
2023-01-28T20:14:45.396Z,100747.88
2023-01-28T20:18:51.940Z,100747.91
2023-01-28T20:22:56.485Z,100747.94
2023-01-28T20:26:59.926Z,100758.31
2023-01-28T20:31:06.371Z,100754.00
2023-01-28T20:35:10.773Z,100760.94
2023-01-28T20:39:15.953Z,100773.03
2023-01-28T20:43:20.414Z,100767.00
2023-01-28T20:47:25.975Z,100766.16
2023-01-28T20:51:35.598Z,100760.09
2023-01-28T20:55:44.338Z,100763.56
2023-01-28T20:59:48.587Z,100765.28
2023-01-28T21:03:52.252Z,100785.19
2023-01-28T21:07:55.104Z,100777.41
2023-01-28T21:12:00.232Z,100788.63
2023-01-28T21:16:06.715Z,100785.22
2023-01-28T21:20:11.641Z,100786.06
2023-01-28T21:24:14.768Z,100788.69
2023-01-28T21:28:20.422Z,100781.78
2023-01-28T21:32:27.301Z,100778.34
2023-01-28T21:36:34.157Z,100771.47
2023-01-28T21:40:39.787Z,100769.78
2023-01-28T21:44:44.396Z,100750.78
2023-01-28T21:48:48.146Z,100750.81
2023-01-28T21:52:51.288Z,100758.59
2023-01-28T21:56:56.154Z,100763.78
2023-01-28T22:01:01.145Z,100751.69
2023-01-28T22:05:04.389Z,100757.75
2023-01-28T22:09:11.922Z,100751.69
2023-01-28T22:13:14.920Z,100743.97
2023-01-28T22:17:19.411Z,100726.72
2023-01-28T22:21:22.706Z,100716.34
2023-01-28T22:25:26.048Z,100716.38
2023-01-28T22:29:32.367Z,100712.94
2023-01-28T22:33:37.516Z,100712.94
2023-01-28T22:37:41.522Z,100729.31
2023-01-28T22:41:45.958Z,100720.69
2023-01-28T22:45:49.375Z,100731.91
2023-01-28T22:49:54.178Z,100725.91
2023-01-28T22:53:58.241Z,100726.78
2023-01-28T22:58:05.693Z,100738.88
2023-01-28T23:02:09.393Z,100745.78
2023-01-28T23:06:14.847Z,100744.09
2023-01-28T23:10:18.681Z,100757.94
2023-01-28T23:14:51.193Z,100769.13
2023-01-28T23:19:20.772Z,100758.81
2023-01-28T23:23:43.416Z,100769.16
2023-01-28T23:27:47.154Z,100759.72
2023-01-28T23:31:52.947Z,100764.03
2023-01-28T23:35:56.540Z,100747.63
2023-01-28T23:40:01.623Z,100743.34
2023-01-28T23:44:05.293Z,100745.94
2023-01-28T23:48:09.007Z,100748.53
2023-01-28T23:52:13.700Z,100751.13
2023-01-28T23:56:18.679Z,100745.09
